Terminal Aerodrome Forecast
Issued by NWS

Home | Current Version | Previous Version | Graphics & Text | Print | Product List | Glossary On
Versions: 1 2 3 4 5 6 7 8 9 10 11 12 13 14 15 16 17 18 19 20 21 22 23 24 25 26 27 28 29 30 31 32 33 34 35 36 37 38
028
FTUS43 KLOT 202117 AAC
TAFORD
TAF AMD
KORD 202117Z 2021/2124 28009KT P6SM BKN035
     FM202125 06008KT P6SM VCSH BKN040
     FM210000 04007KT P6SM BKN050
     FM211500 12005KT P6SM BKN100 PROB30 2119/2122 TSRA BKN050CB=

USA.gov is the U.S. government's official web portal to all federal, state and local government web resources and services.